Time;durP1;ratioP1;P1;durP2;ratioP2;P2;SDS_P1;SDS_P2;PMS_P1;PMS_P2;Temp;Humidity;BMP_temperature;BMP_pressure;BME280_temperature;BME280_humidity;BME280_pressure;Samples;Min_cycle;Max_cycle;Signal;HPM_P1;HPM_P2
2022/01/26 00:06:49;;;;;;;115.97;68.77;;;;;;;3.51;76.45;103260.81;5315966;28;20048;-76
2022/01/26 00:09:26;;;;;;;112.70;66.40;;;;;;;3.58;76.21;103260.00;5313033;28;20020;-76
2022/01/26 00:11:58;;;;;;;116.53;66.10;;;;;;;3.43;76.58;103252.97;5315188;28;20020;-75
2022/01/26 00:14:29;;;;;;;111.60;67.47;;;;;;;3.51;76.18;103235.78;5312070;28;20046;-76
2022/01/26 00:17:01;;;;;;;112.80;66.43;;;;;;;3.77;75.66;103260.16;5309586;28;20841;-76
2022/01/26 00:19:48;;;;;;;125.80;71.23;;;;;;;3.59;76.61;103259.19;5308259;28;20028;-76
2022/01/26 00:22:40;;;;;;;121.17;69.53;;;;;;;3.73;76.50;103255.81;5294429;28;20027;-76
2022/01/26 00:25:24;;;;;;;113.57;67.53;;;;;;;3.65;76.25;103247.13;5308510;28;20062;-76
2022/01/26 00:39:06;;;;;;;115.70;66.50;;;;;;;3.83;75.81;103246.38;5301612;28;20533;-76
2022/01/26 00:41:39;;;;;;;118.53;67.77;;;;;;;3.71;75.47;103249.75;5314386;28;20123;-76
2022/01/26 00:44:10;;;;;;;111.00;65.70;;;;;;;3.45;76.04;103208.94;5313281;28;20470;-76
2022/01/26 00:46:48;;;;;;;115.57;68.60;;;;;;;3.75;75.40;103248.94;5315324;28;20046;-76
2022/01/26 00:49:21;;;;;;;116.60;69.27;;;;;;;3.69;76.12;103247.16;5314753;28;20495;-76
2022/01/26 00:51:54;;;;;;;120.93;68.07;;;;;;;3.70;75.77;103240.25;5315563;28;20035;-76
2022/01/26 00:54:27;;;;;;;112.33;66.17;;;;;;;3.38;76.64;103224.44;5314447;28;20023;-75
2022/01/26 00:56:58;;;;;;;115.20;65.87;;;;;;;3.77;76.03;103244.59;5314333;28;20545;-75
2022/01/26 00:59:29;;;;;;;120.00;69.07;;;;;;;3.58;76.01;103210.78;5314706;28;20039;-76
2022/01/26 01:02:01;;;;;;;117.93;67.17;;;;;;;3.69;76.03;103229.00;5308411;28;20089;-75
2022/01/26 01:04:32;;;;;;;117.43;64.63;;;;;;;3.62;76.30;103219.44;5306648;28;20044;-76
2022/01/26 01:07:05;;;;;;;123.60;68.27;;;;;;;3.67;76.43;103243.69;5313741;28;20059;-76
2022/01/26 01:09:36;;;;;;;118.40;64.87;;;;;;;3.75;75.66;103235.97;5314765;28;20012;-75
2022/01/26 01:12:09;;;;;;;112.50;67.53;;;;;;;3.46;76.70;103233.97;5313314;28;20023;-75
2022/01/26 01:14:42;;;;;;;114.13;62.90;;;;;;;3.51;76.62;103247.84;5314243;28;20047;-75
2022/01/26 01:17:22;;;;;;;123.23;68.93;;;;;;;3.47;75.75;103230.56;5299089;28;20024;-77
2022/01/26 01:23:24;;;;;;;125.40;69.10;;;;;;;3.50;75.45;103217.63;5250211;28;20038;-75
2022/01/26 01:28:51;;;;;;;120.17;66.27;;;;;;;3.64;75.65;103215.16;5310394;28;20462;-76
2022/01/26 01:34:16;;;;;;;122.83;68.10;;;;;;;3.57;76.00;103219.41;5303073;28;20028;-75
2022/01/26 01:36:50;;;;;;;;;;;;;;;3.82;76.34;103218.75;5309884;27;20003;-75
2022/01/26 01:39:22;;;;;;;115.68;67.75;;;;;;;3.63;76.04;103205.66;5309059;28;19955;-75
2022/01/26 01:41:53;;;;;;;130.57;69.30;;;;;;;3.64;75.82;103209.97;5300678;28;20470;-75
2022/01/26 01:44:25;;;;;;;114.90;65.00;;;;;;;3.60;76.50;103203.00;5307340;28;20027;-75
2022/01/26 01:46:57;;;;;;;119.17;67.87;;;;;;;3.44;76.57;103199.44;5312772;28;20080;-75
2022/01/26 01:49:28;;;;;;;120.27;66.50;;;;;;;3.70;76.09;103209.16;5311167;28;20012;-75
2022/01/26 01:52:03;;;;;;;115.13;65.57;;;;;;;3.69;75.98;103218.66;5312351;28;20098;-75
2022/01/26 01:54:38;;;;;;;118.97;67.07;;;;;;;3.66;76.01;103217.75;5312810;28;20052;-75
2022/01/26 01:57:10;;;;;;;120.85;69.10;;;;;;;3.62;76.04;103211.66;5311590;28;20031;-75
2022/01/26 01:59:41;;;;;;;117.87;66.17;;;;;;;3.58;76.37;103213.38;5314934;28;20035;-75
2022/01/26 02:02:12;;;;;;;121.43;68.97;;;;;;;3.49;75.89;103190.00;5267118;22;20049;-75
2022/01/26 02:04:44;;;;;;;115.17;68.83;;;;;;;3.32;76.22;103182.06;5230335;28;20041;-75
2022/01/26 02:07:15;;;;;;;123.47;67.80;;;;;;;3.62;76.48;103212.56;5229608;28;20028;-75
2022/01/26 02:09:46;;;;;;;115.07;63.93;;;;;;;3.50;75.93;103186.53;5230126;28;20079;-75
2022/01/26 02:12:20;;;;;;;119.30;66.73;;;;;;;3.55;74.92;103186.56;5229330;28;20029;-75
2022/01/26 02:15:03;;;;;;;119.97;67.15;;;;;;;3.59;75.11;103190.91;5229268;28;20014;-75
2022/01/26 02:54:39;;;;;;;111.07;62.40;;;;;;;3.54;75.96;103154.63;5233267;28;20049;-75
2022/01/26 03:00:10;;;;;;;111.10;60.80;;;;;;;3.32;75.53;103109.53;5232885;28;20124;-75
2022/01/26 03:05:16;;;;;;;114.40;62.43;;;;;;;3.55;75.47;103132.16;5233926;28;20045;-75
2022/01/26 03:07:58;;;;;;;111.43;63.65;;;;;;;3.32;75.57;103120.75;5233155;28;20022;-75
2022/01/26 03:10:38;;;;;;;122.03;65.27;;;;;;;3.39;75.48;103137.22;5233572;28;20458;-75
2022/01/26 03:13:15;;;;;;;119.60;64.17;;;;;;;3.41;75.78;103130.31;5231664;28;20022;-75
2022/01/26 03:15:55;;;;;;;116.60;63.03;;;;;;;3.23;75.72;103118.13;5233654;28;20466;-75
2022/01/26 03:21:09;;;;;;;117.73;64.37;;;;;;;3.10;76.06;103127.50;5233348;28;20074;-75
2022/01/26 03:29:41;;;;;;;118.03;64.73;;;;;;;3.30;75.59;103119.88;5233368;28;20675;-75
2022/01/26 03:34:54;;;;;;;120.40;66.27;;;;;;;2.89;76.07;103111.78;5232626;28;20051;-75
2022/01/26 03:37:33;;;;;;;114.57;64.57;;;;;;;2.86;76.56;103111.72;5233124;28;20021;-74
2022/01/26 03:40:12;;;;;;;120.93;66.63;;;;;;;3.39;76.13;103135.50;5233041;28;20207;-75
2022/01/26 03:42:43;;;;;;;112.27;64.00;;;;;;;3.27;76.18;103112.09;5232424;28;20021;-76
2022/01/26 03:45:15;;;;;;;119.20;64.10;;;;;;;3.13;76.01;103079.19;5232127;28;20033;-76
2022/01/26 03:47:46;;;;;;;120.33;65.77;;;;;;;3.43;76.16;103130.34;5233196;28;20130;-75
2022/01/26 03:50:17;;;;;;;112.87;64.47;;;;;;;3.27;76.34;103117.25;5231184;28;20053;-76
2022/01/26 03:52:49;;;;;;;118.97;64.80;;;;;;;3.42;75.68;103118.25;5232922;28;20026;-76
2022/01/26 03:55:20;;;;;;;118.77;64.20;;;;;;;3.34;75.67;103113.88;5232360;28;20071;-75
2022/01/26 03:57:51;;;;;;;123.27;68.07;;;;;;;3.30;75.72;103112.09;5231643;28;20040;-76
2022/01/26 04:00:23;;;;;;;113.50;64.17;;;;;;;3.30;75.85;103109.50;5232241;28;20091;-76
2022/01/26 04:02:54;;;;;;;115.33;61.87;;;;;;;3.41;75.13;103135.50;5231944;28;20060;-75
2022/01/26 04:05:26;;;;;;;114.83;62.90;;;;;;;3.25;75.69;103109.50;5232009;28;20205;-76
2022/01/26 04:08:04;;;;;;;118.20;63.63;;;;;;;3.33;76.09;103138.06;5232494;28;20053;-76
2022/01/26 04:10:50;;;;;;;123.37;67.87;;;;;;;2.94;76.07;103075.59;5232395;28;20411;-75
2022/01/26 04:13:22;;;;;;;122.03;66.00;;;;;;;3.22;75.45;103125.00;5231293;28;20042;-75
2022/01/26 04:15:53;;;;;;;115.47;62.70;;;;;;;3.09;76.26;103118.84;5232046;28;20064;-76
2022/01/26 04:18:31;;;;;;;126.27;64.83;;;;;;;3.26;75.86;103111.22;5231902;28;20487;-76
2022/01/26 04:21:20;;;;;;;118.67;65.50;;;;;;;3.10;76.57;103094.72;5231971;28;20018;-76
2022/01/26 04:24:29;;;;;;;123.20;65.07;;;;;;;3.16;76.31;103103.38;5232189;28;20053;-76
2022/01/26 04:27:03;;;;;;;120.83;64.20;;;;;;;2.84;76.13;103069.47;5225662;28;20044;-76
2022/01/26 04:29:35;;;;;;;119.53;64.87;;;;;;;3.28;76.00;103128.50;5231670;28;20427;-75
2022/01/26 04:32:08;;;;;;;122.17;64.50;;;;;;;3.31;76.12;103134.59;5231855;28;20022;-75
2022/01/26 04:34:39;;;;;;;124.87;64.97;;;;;;;3.06;76.13;103092.94;5231379;28;20025;-75
2022/01/26 04:37:32;;;;;;;123.00;66.13;;;;;;;3.13;77.61;103130.09;5231423;28;20033;-76
2022/01/26 04:40:08;;;;;;;118.20;63.20;;;;;;;3.27;76.67;103125.03;5231513;28;20619;-76
2022/01/26 04:42:50;;;;;;;120.23;65.50;;;;;;;3.00;76.88;103108.44;5230008;28;20026;-76
2022/01/26 04:45:21;;;;;;;119.23;65.07;;;;;;;3.13;76.13;103136.16;5231441;28;20360;-76
2022/01/26 04:47:52;;;;;;;114.80;63.03;;;;;;;3.23;75.96;103156.97;5231697;28;20082;-76
2022/01/26 04:50:24;;;;;;;121.77;66.03;;;;;;;3.29;76.86;103167.38;5231266;28;20033;-76
2022/01/26 04:52:55;;;;;;;120.73;63.07;;;;;;;3.18;76.76;103163.81;5231555;28;20083;-75
2022/01/26 04:55:26;;;;;;;118.97;62.70;;;;;;;3.12;76.44;103165.50;5231260;28;20534;-76
2022/01/26 04:57:58;;;;;;;115.73;60.33;;;;;;;3.11;77.26;103168.94;5230144;28;20025;-75
2022/01/26 05:00:29;;;;;;;117.87;64.87;;;;;;;3.06;77.23;103144.72;5231161;28;20024;-76
2022/01/26 05:03:00;;;;;;;117.03;61.53;;;;;;;3.04;77.21;103169.72;5231187;28;20045;-76
2022/01/26 05:05:32;;;;;;;117.27;64.10;;;;;;;3.01;77.24;103156.75;5230604;28;20472;-75
2022/01/26 05:08:03;;;;;;;116.93;61.20;;;;;;;3.02;77.24;103142.94;5231740;28;20032;-76
2022/01/26 05:10:37;;;;;;;113.27;62.97;;;;;;;3.10;77.71;103148.22;5230442;28;20095;-75
2022/01/26 05:13:11;;;;;;;112.93;62.13;;;;;;;3.07;77.85;103146.44;5230067;28;20018;-76
2022/01/26 05:15:43;;;;;;;115.35;61.38;;;;;;;2.98;77.36;103148.97;5231330;28;20476;-76
2022/01/26 05:18:14;;;;;;;114.70;66.07;;;;;;;2.62;78.63;103120.13;5230783;28;20022;-76
2022/01/26 05:20:46;;;;;;;118.57;64.10;;;;;;;2.87;77.79;103123.84;5231169;28;20032;-75
2022/01/26 05:23:17;;;;;;;116.57;63.10;;;;;;;2.99;78.35;103135.16;5230358;28;20029;-76
2022/01/26 05:25:48;;;;;;;111.47;59.30;;;;;;;3.01;77.80;103128.28;5231167;28;20037;-76
2022/01/26 05:28:20;;;;;;;119.50;63.43;;;;;;;2.97;78.46;103118.72;5229437;28;20022;-76
2022/01/26 05:30:51;;;;;;;115.00;63.90;;;;;;;2.79;78.47;103063.38;5231124;28;20460;-76
2022/01/26 05:33:23;;;;;;;116.17;62.23;;;;;;;3.10;78.11;103112.84;5229902;28;20060;-76
2022/01/26 05:35:55;;;;;;;118.67;63.90;;;;;;;2.76;78.58;103086.63;5231278;28;20056;-76
2022/01/26 05:38:26;;;;;;;116.80;63.03;;;;;;;2.90;78.93;103100.56;5229981;28;20029;-76
2022/01/26 05:41:01;;;;;;;118.07;64.37;;;;;;;2.99;78.36;103107.56;5229634;28;20522;-76
2022/01/26 05:43:33;;;;;;;116.80;63.00;;;;;;;3.02;78.71;103117.06;5230132;28;20025;-75
2022/01/26 05:46:09;;;;;;;125.10;64.33;;;;;;;3.09;79.55;103116.25;5230532;28;20029;-76
2022/01/26 05:48:45;;;;;;;122.00;64.83;;;;;;;2.86;79.10;103103.97;5230250;28;20025;-76
2022/01/26 05:51:17;;;;;;;112.70;61.70;;;;;;;2.90;78.76;103087.63;5230030;28;20041;-76
2022/01/26 05:53:48;;;;;;;118.43;63.17;;;;;;;2.85;78.57;103094.47;5230582;28;20394;-76
2022/01/26 05:56:20;;;;;;;115.17;63.87;;;;;;;3.02;79.37;103112.75;5229439;28;20156;-76
2022/01/26 05:58:51;;;;;;;119.57;63.17;;;;;;;3.12;78.91;103118.91;5228667;28;20037;-76
2022/01/26 06:01:22;;;;;;;119.77;61.70;;;;;;;2.98;79.18;103102.38;5230187;28;20057;-76
2022/01/26 06:03:54;;;;;;;117.70;62.90;;;;;;;3.02;78.77;103096.34;5228763;28;20033;-75
2022/01/26 06:06:25;;;;;;;121.70;63.93;;;;;;;2.66;79.28;103045.16;5229497;28;20403;-75
2022/01/26 06:08:56;;;;;;;122.23;67.07;;;;;;;2.79;79.30;103063.38;5229406;28;20774;-75
2022/01/26 06:11:27;;;;;;;117.43;65.30;;;;;;;2.98;79.63;103089.41;5228992;28;20026;-75
2022/01/26 06:13:59;;;;;;;119.97;62.73;;;;;;;2.99;79.57;103104.97;5229937;28;20033;-75
2022/01/26 06:16:30;;;;;;;124.87;65.93;;;;;;;2.64;80.40;103064.97;5229509;28;20393;-74
2022/01/26 06:19:01;;;;;;;120.63;66.87;;;;;;;2.97;80.74;103113.56;5230310;28;20063;-74
2022/01/26 06:21:33;;;;;;;124.07;65.73;;;;;;;2.99;80.16;103117.03;5229520;28;20026;-75
2022/01/26 06:24:05;;;;;;;121.90;63.03;;;;;;;2.92;80.00;103125.59;5230091;28;20068;-72
2022/01/26 06:26:37;;;;;;;123.43;66.33;;;;;;;2.93;80.80;103122.16;5220055;28;20037;-73
2022/01/26 06:29:08;;;;;;;125.33;63.97;;;;;;;2.87;81.32;103121.25;5209101;28;20034;-70
2022/01/26 06:31:41;;;;;;;122.83;63.93;;;;;;;2.93;81.40;103114.41;5208292;28;20044;-74
2022/01/26 06:34:13;;;;;;;119.10;65.40;;;;;;;2.90;81.24;103108.34;5206256;28;20026;-72
2022/01/26 06:36:44;;;;;;;125.40;66.63;;;;;;;2.94;81.50;103106.66;5208893;28;20044;-74
2022/01/26 06:39:15;;;;;;;123.37;65.93;;;;;;;2.98;81.19;103094.59;5207980;28;20049;-76
2022/01/26 06:41:51;;;;;;;122.00;67.53;;;;;;;2.89;81.79;103101.44;5198575;28;20041;-72
2022/01/26 06:44:29;;;;;;;119.67;64.63;;;;;;;2.89;81.48;103110.91;5197375;28;20639;-73
2022/01/26 06:49:42;;;;;;;116.40;63.13;;;;;;;2.78;81.91;103103.03;5209365;28;20042;-75
2022/01/26 06:52:14;;;;;;;114.33;61.57;;;;;;;2.74;82.19;103109.91;5205846;28;20044;-76
2022/01/26 06:54:45;;;;;;;120.20;65.53;;;;;;;2.87;82.59;103123.84;5192716;28;20064;-73
2022/01/26 06:57:16;;;;;;;125.30;63.00;;;;;;;2.79;82.38;103117.72;5190064;28;20065;-80
2022/01/26 06:59:48;;;;;;;123.73;65.63;;;;;;;2.84;83.02;103122.94;5207526;28;20043;-72
2022/01/26 07:02:19;;;;;;;121.10;64.87;;;;;;;2.74;82.88;103103.88;5208140;28;20307;-73
2022/01/26 07:04:50;;;;;;;126.17;67.67;;;;;;;2.82;83.37;103117.75;5205982;28;20033;-76
2022/01/26 07:07:22;;;;;;;120.10;64.90;;;;;;;2.78;83.18;103106.50;5208273;28;20041;-75
2022/01/26 07:09:53;;;;;;;124.80;65.33;;;;;;;2.87;82.88;103115.19;5190471;28;20165;-73
2022/01/26 07:12:25;;;;;;;127.80;65.97;;;;;;;2.82;82.97;103115.16;5206737;28;20029;-73
2022/01/26 07:21:23;;;;;;;131.13;69.87;;;;;;;2.70;84.81;103125.38;5191902;28;20052;-73
2022/01/26 07:23:59;;;;;;;130.67;66.03;;;;;;;2.77;84.08;103132.38;5195184;28;20495;-73
2022/01/26 07:26:31;;;;;;;135.83;68.47;;;;;;;2.70;85.29;103148.69;5207148;28;20515;-75
2022/01/26 07:29:07;;;;;;;134.10;66.63;;;;;;;2.75;85.32;103171.19;5211159;28;20105;-75
2022/01/26 07:31:42;;;;;;;138.20;68.03;;;;;;;2.58;85.49;103134.78;5209474;28;20583;-76
2022/01/26 07:34:14;;;;;;;136.57;70.37;;;;;;;2.73;85.63;103123.69;5208210;28;20049;-77
2022/01/26 07:36:48;;;;;;;132.67;69.57;;;;;;;2.68;85.72;103142.63;5214078;28;20057;-72
2022/01/26 07:39:30;;;;;;;130.95;68.10;;;;;;;2.68;86.31;103138.31;5213516;28;20112;-79
2022/01/26 07:42:03;;;;;;;137.73;70.73;;;;;;;2.73;86.21;103138.34;5212806;28;20033;-80
2022/01/26 07:44:34;;;;;;;135.87;70.77;;;;;;;2.59;87.13;103133.03;5192970;28;20098;-74
2022/01/26 07:47:06;;;;;;;143.90;69.60;;;;;;;2.63;87.18;103133.09;5214190;28;20041;-73
2022/01/26 07:49:38;;;;;;;138.50;69.90;;;;;;;2.57;88.39;103139.91;5208602;28;20045;-73
2022/01/26 07:52:09;;;;;;;142.37;70.13;;;;;;;2.73;88.26;103146.13;5211530;28;20030;-76
2022/01/26 07:54:40;;;;;;;142.73;68.80;;;;;;;2.58;87.85;103111.47;5209961;28;20029;-76
2022/01/26 07:57:12;;;;;;;141.97;71.63;;;;;;;2.70;88.10;103130.56;5211036;28;20018;-73
2022/01/26 07:59:43;;;;;;;143.77;70.70;;;;;;;2.71;88.07;103137.47;5207990;28;20052;-75
2022/01/26 08:02:14;;;;;;;137.07;68.97;;;;;;;2.78;88.31;103157.38;5190147;28;20616;-77
2022/01/26 08:04:46;;;;;;;140.80;67.83;;;;;;;2.72;89.04;103165.09;5209150;28;20111;-74
2022/01/26 08:07:17;;;;;;;133.43;70.53;;;;;;;2.71;89.26;103181.47;5206253;28;20048;-76
2022/01/26 08:09:48;;;;;;;136.50;70.37;;;;;;;2.82;88.80;103179.00;5210928;28;20488;-75
2022/01/26 08:12:21;;;;;;;141.03;68.33;;;;;;;2.78;89.28;103176.38;5210282;28;20065;-78
2022/01/26 08:14:52;;;;;;;136.63;68.50;;;;;;;2.78;89.50;103165.16;5209181;28;20033;-72
2022/01/26 08:17:23;;;;;;;141.10;68.43;;;;;;;2.85;89.30;103166.97;5208746;28;20250;-75
2022/01/26 08:19:56;;;;;;;129.90;65.93;;;;;;;2.87;89.86;103178.19;5212542;28;20060;-75
2022/01/26 08:22:28;;;;;;;135.10;69.93;;;;;;;2.82;89.79;103179.88;5194348;28;20990;-77
2022/01/26 08:25:00;;;;;;;129.30;64.33;;;;;;;2.77;90.36;103184.13;5190006;28;20041;-77
2022/01/26 08:27:39;;;;;;;127.87;65.70;;;;;;;2.75;90.49;103181.53;5209672;28;20022;-73
2022/01/26 08:30:15;;;;;;;134.43;65.47;;;;;;;2.75;90.80;103163.41;5208470;28;20039;-74
2022/01/26 08:32:46;;;;;;;131.23;63.00;;;;;;;2.74;90.38;103158.22;5210237;28;20069;-79
2022/01/26 08:35:18;;;;;;;134.07;63.33;;;;;;;2.75;91.58;103167.72;5198495;28;20551;-74
2022/01/26 08:37:49;;;;;;;134.73;66.90;;;;;;;2.76;91.42;103161.66;5191715;28;20069;-73
2022/01/26 08:40:20;;;;;;;131.17;68.90;;;;;;;2.71;91.64;103155.56;5205512;28;20034;-73
2022/01/26 08:42:52;;;;;;;138.13;69.47;;;;;;;2.62;93.25;103164.97;5206585;28;20069;-73
2022/01/26 08:45:24;;;;;;;128.23;62.60;;;;;;;2.63;92.61;103160.69;5210146;28;20128;-84
2022/01/26 08:47:56;;;;;;;136.03;66.13;;;;;;;2.74;92.48;103164.25;5228766;28;20037;-82
2022/01/26 08:50:27;;;;;;;129.67;65.10;;;;;;;2.76;92.49;103182.38;5229765;28;20041;-82
2022/01/26 08:52:59;;;;;;;133.40;65.47;;;;;;;2.61;92.98;103141.69;5226318;28;20034;-82
2022/01/26 08:55:31;;;;;;;137.40;63.67;;;;;;;2.60;93.30;103152.91;5228862;28;20446;-82
2022/01/26 08:58:04;;;;;;;132.70;65.67;;;;;;;2.74;93.59;103168.56;5229724;28;20491;-82
2022/01/26 09:00:37;;;;;;;133.83;63.67;;;;;;;2.85;93.41;103184.19;5229197;28;20026;-82
2022/01/26 09:03:08;;;;;;;132.00;64.07;;;;;;;2.69;93.14;103170.25;5226275;28;20042;-82
2022/01/26 09:05:40;;;;;;;124.03;62.90;;;;;;;2.80;92.56;103184.16;5225185;28;20025;-72
2022/01/26 09:08:11;;;;;;;119.87;59.83;;;;;;;2.77;92.40;103166.00;5226855;28;20033;-78
2022/01/26 09:10:43;;;;;;;123.80;60.50;;;;;;;2.84;91.85;103165.22;5224141;28;20076;-77
2022/01/26 09:13:14;;;;;;;123.27;63.47;;;;;;;2.71;92.35;103161.63;5229389;28;20029;-81
2022/01/26 09:15:45;;;;;;;115.53;59.30;;;;;;;2.78;92.55;103165.16;5228445;28;20088;-77
2022/01/26 09:18:22;;;;;;;113.23;61.07;;;;;;;2.83;92.15;103173.84;5228980;28;20032;-78
2022/01/26 09:20:54;;;;;;;118.07;58.77;;;;;;;2.79;91.87;103164.31;5212002;28;20044;-78
2022/01/26 09:23:25;;;;;;;115.60;57.97;;;;;;;2.90;92.09;103185.13;5212789;28;20036;-78
2022/01/26 09:25:56;;;;;;;115.63;56.47;;;;;;;2.82;91.75;103182.47;5229351;28;20084;-77
2022/01/26 09:28:28;;;;;;;124.20;60.33;;;;;;;2.82;92.44;103185.03;5229824;28;20021;-77
2022/01/26 09:30:59;;;;;;;112.77;56.53;;;;;;;2.92;92.10;103192.91;5230057;28;20083;-78
2022/01/26 09:33:30;;;;;;;117.43;57.93;;;;;;;2.84;92.55;103193.72;5229714;28;20029;-78
2022/01/26 09:36:03;;;;;;;117.30;55.93;;;;;;;2.91;92.01;103197.22;5218136;28;20078;-78
2022/01/26 09:38:34;;;;;;;118.00;58.43;;;;;;;2.86;92.63;103199.75;5228408;28;20030;-77
2022/01/26 09:41:05;;;;;;;114.73;59.43;;;;;;;2.93;92.33;103189.47;5228927;28;20476;-77
2022/01/26 09:43:37;;;;;;;119.00;59.80;;;;;;;2.86;92.53;103173.84;5212305;28;20437;-78
2022/01/26 09:46:11;;;;;;;113.60;58.50;;;;;;;2.92;92.17;103177.34;5230433;28;20121;-77
2022/01/26 09:48:44;;;;;;;109.85;54.72;;;;;;;2.88;92.27;103179.91;5229390;28;20029;-77
2022/01/26 09:51:17;;;;;;;119.33;57.00;;;;;;;2.92;92.41;103161.84;5229832;28;20026;-78
2022/01/26 09:54:16;;;;;;;114.50;57.03;;;;;;;3.01;91.81;103157.63;5211977;28;20294;-78
2022/01/26 09:56:51;;;;;;;109.03;54.60;;;;;;;2.99;92.03;103148.09;5228186;28;20052;-78
2022/01/26 09:59:22;;;;;;;107.10;57.38;;;;;;;3.00;92.03;103147.25;5229787;28;20132;-78
2022/01/26 10:01:53;;;;;;;109.90;56.60;;;;;;;2.96;92.06;103154.13;5229122;28;20067;-78
2022/01/26 10:04:35;;;;;;;106.40;55.37;;;;;;;3.05;92.04;103158.53;5229734;28;20560;-78
2022/01/26 10:07:26;;;;;;;101.40;51.67;;;;;;;3.08;91.79;103153.38;5229191;28;20049;-77
2022/01/26 10:10:18;;;;;;;98.00;47.70;;;;;;;3.05;90.83;103158.53;5211785;28;20041;-77
2022/01/26 10:16:02;;;;;;;;;;;;;;;3.31;89.20;103155.31;5230281;28;20669;-77
2022/01/26 10:18:33;;;;;;;90.00;45.97;;;;;;;3.13;90.52;103149.09;5217700;28;19916;-77
2022/01/26 10:21:08;;;;;;;94.57;47.67;;;;;;;3.07;90.65;103140.41;5229266;28;20041;-77
2022/01/26 10:23:40;;;;;;;;;;;;;;;3.26;89.90;103157.00;5229563;28;20084;-76
2022/01/26 10:26:19;;;;;;;92.03;49.97;;;;;;;3.18;90.73;103151.72;5210744;28;20386;-77
2022/01/26 10:28:59;;;;;;;91.40;51.93;;;;;;;3.17;90.10;103137.06;5229663;28;20088;-77
2022/01/26 10:31:39;;;;;;;89.37;50.00;;;;;;;3.16;90.64;103135.31;5229101;28;20043;-77
2022/01/26 10:34:12;;;;;;;93.53;51.63;;;;;;;3.16;90.81;103144.81;5229247;28;20041;-77
2022/01/26 10:36:54;;;;;;;87.13;50.10;;;;;;;3.19;90.45;103137.06;5229421;28;20472;-77
2022/01/26 10:39:34;;;;;;;95.37;50.63;;;;;;;3.22;90.93;103158.69;5228939;28;20036;-77
2022/01/26 10:42:12;;;;;;;87.50;49.00;;;;;;;3.09;91.01;103160.28;5228739;28;20026;-79
2022/01/26 10:44:53;;;;;;;90.40;50.30;;;;;;;3.13;91.82;103180.19;5211542;28;20472;-78
2022/01/26 10:47:27;;;;;;;92.27;48.50;;;;;;;3.09;92.91;103198.28;5198687;28;20044;-78
2022/01/26 10:52:39;;;;;;;85.23;47.63;;;;;;;3.16;91.88;103209.56;5229416;28;20400;-78
2022/01/26 10:55:11;;;;;;;86.70;48.93;;;;;;;3.17;92.32;103190.56;5227887;28;20472;-76
2022/01/26 10:57:42;;;;;;;89.33;48.30;;;;;;;3.20;91.77;103182.81;5229592;28;20037;-77
2022/01/26 11:00:14;;;;;;;89.73;48.67;;;;;;;3.26;91.48;103188.91;5231294;28;20029;-78
2022/01/26 11:02:48;;;;;;;90.27;50.93;;;;;;;3.24;91.81;103185.47;5233331;28;20041;-78
2022/01/26 11:05:19;;;;;;;91.80;49.93;;;;;;;3.16;91.72;103171.56;5232219;28;20044;-79
2022/01/26 11:07:51;;;;;;;97.73;51.30;;;;;;;3.16;92.52;103175.88;5233342;28;20296;-75
2022/01/26 11:10:34;;;;;;;103.73;51.03;;;;;;;3.19;92.27;103174.19;5232055;28;20102;-75
2022/01/26 11:13:06;;;;;;;93.73;50.53;;;;;;;3.18;92.41;103184.53;5214689;28;20029;-75
2022/01/26 11:15:39;;;;;;;91.03;50.83;;;;;;;3.21;92.07;103175.06;5232697;28;20530;-75
2022/01/26 11:18:20;;;;;;;92.00;49.57;;;;;;;3.18;92.37;103171.59;5232334;28;20116;-75
2022/01/26 11:20:53;;;;;;;84.57;48.47;;;;;;;3.16;93.04;103168.97;5231004;28;20103;-76
2022/01/26 11:23:35;;;;;;;88.60;48.43;;;;;;;3.22;92.22;103161.28;5232296;28;20112;-76
2022/01/26 11:26:20;;;;;;;87.13;48.03;;;;;;;3.25;92.01;103166.47;5213902;28;20064;-76
2022/01/26 11:28:51;;;;;;;95.07;51.17;;;;;;;3.22;92.45;103162.97;5232919;28;20033;-76
2022/01/26 11:31:23;;;;;;;89.50;51.80;;;;;;;3.18;92.58;103161.25;5232284;28;20150;-75
2022/01/26 11:33:55;;;;;;;98.80;52.83;;;;;;;3.24;92.13;103158.69;5232836;28;20395;-76
2022/01/26 11:36:30;;;;;;;89.73;49.67;;;;;;;3.30;92.51;103157.88;5231958;28;20446;-75
2022/01/26 11:42:16;;;;;;;89.47;50.13;;;;;;;3.31;92.14;103150.13;5232792;28;20874;-76
2022/01/26 11:42:21;;;;;;;91.68;49.45;;;;;;;3.20;92.41;103125.84;5231631;28;20091;-75
2022/01/26 11:45:08;;;;;;;91.33;48.37;;;;;;;3.42;92.00;103132.06;5213664;28;20025;-74
2022/01/26 11:47:42;;;;;;;90.40;49.90;;;;;;;3.42;92.25;103138.97;5213800;28;20029;-73
2022/01/26 11:50:19;;;;;;;93.57;51.33;;;;;;;3.42;91.95;103126.03;5232350;28;20030;-75
2022/01/26 11:53:08;;;;;;;88.13;46.23;;;;;;;3.59;91.44;103128.72;5237494;28;20075;-73
2022/01/26 11:55:48;;;;;;;83.90;46.40;;;;;;;3.51;91.07;103129.53;5232891;28;20022;-74
2022/01/26 11:58:34;;;;;;;84.47;47.13;;;;;;;3.47;90.05;103120.00;5230591;28;20452;-73
2022/01/26 12:04:08;;;;;;;83.63;46.97;;;;;;;3.56;91.12;103128.72;5232026;28;20038;-82
2022/01/26 12:06:43;;;;;;;86.10;46.97;;;;;;;3.42;90.56;103108.72;5229694;28;20049;-73
2022/01/26 12:09:17;;;;;;;93.20;47.97;;;;;;;3.49;90.82;103130.41;5213303;28;20116;-76
2022/01/26 12:11:55;;;;;;;91.93;49.50;;;;;;;3.53;90.49;103115.72;5211634;28;20116;-73
2022/01/26 12:14:27;;;;;;;84.90;48.17;;;;;;;3.44;90.40;103113.94;5229906;28;20384;-72
2022/01/26 12:16:59;;;;;;;84.30;49.60;;;;;;;3.34;90.49;103102.63;5231372;28;20041;-72
2022/01/26 12:19:45;;;;;;;88.27;47.73;;;;;;;3.45;90.92;103118.25;5232106;28;20070;-78
2022/01/26 12:36:31;;;;;;;83.30;45.73;;;;;;;3.51;89.75;103118.28;5230332;28;20473;-74
2022/01/26 12:39:09;;;;;;;85.47;47.40;;;;;;;3.54;89.74;103115.75;5231619;28;20506;-80
2022/01/26 12:41:51;;;;;;;84.33;47.27;;;;;;;3.56;90.07;103128.72;5211033;28;20028;-82
2022/01/26 12:44:22;;;;;;;86.17;47.40;;;;;;;3.47;89.95;103101.00;5230066;28;20969;-86
2022/01/26 12:46:55;;;;;;;82.07;48.00;;;;;;;3.53;90.22;103116.59;5229893;28;20090;-72
2022/01/26 12:49:28;;;;;;;81.07;46.47;;;;;;;3.63;90.09;103118.38;5230016;28;20051;-68
2022/01/26 12:52:00;;;;;;;84.67;46.37;;;;;;;3.64;90.59;103114.06;5231397;28;20494;-83
2022/01/26 12:54:32;;;;;;;81.87;43.83;;;;;;;3.68;89.64;103117.56;5230428;28;20579;-80
2022/01/26 12:57:06;;;;;;;81.33;44.97;;;;;;;3.71;89.57;103123.63;5230186;28;20049;-77
2022/01/26 12:59:38;;;;;;;80.05;43.15;;;;;;;3.78;89.75;103118.47;5230732;28;20109;-78
2022/01/26 13:02:10;;;;;;;79.87;44.73;;;;;;;3.80;89.53;103121.94;5229686;28;20128;-74
2022/01/26 13:04:41;;;;;;;82.50;44.40;;;;;;;3.64;89.92;103106.31;5230932;28;20017;-79
2022/01/26 13:07:16;;;;;;;82.37;45.10;;;;;;;3.80;89.47;103111.56;5229885;28;20029;-77
2022/01/26 13:09:48;;;;;;;77.10;45.40;;;;;;;3.87;89.60;103119.38;5229593;28;20384;-77
2022/01/26 13:12:30;;;;;;;83.73;47.80;;;;;;;3.93;88.68;103094.34;5233128;28;20025;-77
2022/01/26 13:15:12;;;;;;;81.47;44.67;;;;;;;3.83;88.51;103096.91;5229103;28;20029;-78
2022/01/26 13:17:54;;;;;;;73.67;43.30;;;;;;;3.79;88.40;103089.97;5229544;28;20036;-77
2022/01/26 13:20:44;;;;;;;80.67;43.60;;;;;;;3.88;87.81;103083.94;5235830;28;20025;-77
2022/01/26 13:24:32;;;;;;;79.10;44.50;;;;;;;3.87;88.10;103088.25;5228010;28;20108;-78
2022/01/26 13:26:41;;;;;;;76.80;47.37;;;;;;;3.77;88.58;103086.50;5219850;28;20039;-73
2022/01/26 13:32:10;;;;;;;111.17;68.97;;;;;;;3.87;88.17;103082.22;5226661;28;20029;-83
2022/01/26 13:34:54;;;;;;;117.57;73.90;;;;;;;3.90;87.51;103071.00;5228077;28;20514;-80
2022/01/26 13:37:49;;;;;;;130.53;80.23;;;;;;;3.81;88.44;103067.50;5218801;28;20167;-75
2022/01/26 13:41:03;;;;;;;129.65;85.13;;;;;;;3.94;87.46;103077.94;5228336;28;20029;-76